KLSF/LSF METAR and TAF weather

Enter ICAO airport designator
Station Type Date Time Source
KLSF METAR 2024/06/15 23:55 UTC NOAA

KLSF 152355Z AUTO 00000KT 10SM OVC075 31/25 A2989 RMK AO2 SLP124 T03100248 10367 20310 55004 RVRNO VISNO RWY33 $


Station Type Date Time Source
KLSF Decoded METAR 2024/06/15 23:55 UTC NOAA

Fort Benning, GA, United States (KLSF) 32-20N 084-50W 130M
Jun 15, 2024 - 07:55 PM EDT / 2024.06.15 2355 UTC
Wind: Calm:0
Visibility: 10 mile(s):0
Sky conditions: overcast
Temperature: 87.8 F (31.0 C)
Heat index: 99.1 F (37.3 C):1
Dew Point: 76.6 F (24.8 C)
Relative Humidity: 69%
Pressure (altimeter): 29.89 in. Hg (1012 hPa)
Pressure tendency: 0.01 inches (0.4 hPa) lower than three hours ago
ob: KLSF 152355Z AUTO 00000KT 10SM OVC075 31/25 A2989 RMK AO2 SLP124 T03100248 10367 20310 55004 RVRNO VISNO RWY33
cycle: 0

Station Type Date Time Source
KLSF TAF 2024/06/14 21:35 UTC NOAA